createdAt,value
2018-06-17T00:04:00.000Z,19.4
2018-06-17T00:09:00.000Z,19.4
2018-06-17T00:14:00.000Z,19.3
2018-06-17T00:19:00.000Z,19.3
2018-06-17T00:24:00.000Z,19.2
2018-06-17T00:29:00.000Z,19.2
2018-06-17T00:34:00.000Z,19.2
2018-06-17T00:39:00.000Z,19.2
2018-06-17T00:44:00.000Z,19.2
2018-06-17T00:49:00.000Z,19.1
2018-06-17T00:54:00.000Z,19.1
2018-06-17T00:59:00.000Z,19.1
2018-06-17T01:04:00.000Z,19.1
2018-06-17T01:09:00.000Z,19.1
2018-06-17T01:14:00.000Z,19.0
2018-06-17T01:20:00.000Z,19.0
2018-06-17T01:25:00.000Z,19.0
2018-06-17T01:30:00.000Z,19.0
2018-06-17T01:35:00.000Z,19.0
2018-06-17T01:40:00.000Z,19.0
2018-06-17T01:45:00.000Z,19.0
2018-06-17T01:50:00.000Z,19.0
2018-06-17T01:55:00.000Z,19.0
2018-06-17T02:00:00.000Z,19.0
2018-06-17T02:05:00.000Z,18.9
2018-06-17T02:10:00.000Z,18.9
2018-06-17T02:15:00.000Z,18.9
2018-06-17T02:20:00.000Z,18.8
2018-06-17T02:25:00.000Z,18.8
2018-06-17T02:30:00.000Z,18.8
2018-06-17T02:35:00.000Z,18.8
2018-06-17T02:40:00.000Z,18.8
2018-06-17T02:45:00.000Z,18.8
2018-06-17T02:50:00.000Z,18.8
2018-06-17T02:55:00.000Z,18.8
2018-06-17T03:00:00.000Z,18.8
2018-06-17T03:05:00.000Z,18.8
2018-06-17T03:10:00.000Z,18.8
2018-06-17T03:15:00.000Z,18.9
2018-06-17T03:20:00.000Z,18.9
2018-06-17T03:25:00.000Z,18.9
2018-06-17T03:30:00.000Z,19.0
2018-06-17T03:35:00.000Z,19.0
2018-06-17T03:40:00.000Z,19.0
2018-06-17T03:45:00.000Z,19.1
2018-06-17T03:50:00.000Z,19.1
2018-06-17T03:55:00.000Z,19.1
2018-06-17T04:00:00.000Z,19.1
2018-06-17T04:05:00.000Z,19.1
2018-06-17T04:10:00.000Z,19.1
2018-06-17T04:15:00.000Z,19.2
2018-06-17T04:20:00.000Z,19.2
2018-06-17T04:25:00.000Z,19.3
2018-06-17T04:30:00.000Z,19.3
2018-06-17T04:35:00.000Z,19.4
2018-06-17T04:40:00.000Z,19.4
2018-06-17T04:45:00.000Z,19.5
2018-06-17T04:50:00.000Z,19.5
2018-06-17T04:55:00.000Z,19.6
2018-06-17T05:00:00.000Z,19.7
2018-06-17T05:05:00.000Z,19.8
2018-06-17T05:10:00.000Z,19.8
2018-06-17T05:15:00.000Z,19.9
2018-06-17T05:20:00.000Z,20.0
2018-06-17T05:25:00.000Z,20.1
2018-06-17T05:30:00.000Z,20.2
2018-06-17T05:35:00.000Z,20.3
2018-06-17T05:40:00.000Z,20.5
2018-06-17T05:45:00.000Z,20.6
2018-06-17T05:50:00.000Z,20.7
2018-06-17T05:55:00.000Z,20.8
2018-06-17T06:00:00.000Z,20.9
2018-06-17T06:05:00.000Z,21.1
2018-06-17T06:10:00.000Z,21.2
2018-06-17T06:15:00.000Z,21.4
2018-06-17T06:20:00.000Z,21.5
2018-06-17T06:25:00.000Z,21.6
2018-06-17T06:30:00.000Z,21.8
2018-06-17T06:35:00.000Z,21.9
2018-06-17T06:40:00.000Z,22.0
2018-06-17T06:45:00.000Z,22.4
2018-06-17T06:50:00.000Z,22.8
2018-06-17T06:55:00.000Z,23.2
2018-06-17T07:00:00.000Z,23.6
2018-06-17T07:05:00.000Z,24.0
2018-06-17T07:10:00.000Z,24.5
2018-06-17T07:15:00.000Z,25.0
2018-06-17T07:21:00.000Z,25.6
2018-06-17T07:26:00.000Z,26.1
2018-06-17T07:31:00.000Z,26.3
2018-06-17T07:36:00.000Z,26.3
2018-06-17T07:41:00.000Z,26.5
2018-06-17T07:46:00.000Z,26.8
2018-06-17T07:51:00.000Z,27.0
2018-06-17T07:56:00.000Z,27.4
2018-06-17T08:01:00.000Z,27.4
2018-06-17T08:06:00.000Z,27.5
2018-06-17T08:11:00.000Z,27.5
2018-06-17T08:16:00.000Z,27.7
2018-06-17T08:21:00.000Z,27.7
2018-06-17T08:26:00.000Z,27.9
2018-06-17T08:31:00.000Z,27.8
2018-06-17T08:36:00.000Z,27.8
2018-06-17T08:41:00.000Z,27.6
2018-06-17T08:46:00.000Z,27.7
2018-06-17T08:51:00.000Z,28.0
2018-06-17T08:56:00.000Z,28.1
2018-06-17T09:01:00.000Z,28.4
2018-06-17T09:06:00.000Z,28.6
2018-06-17T09:11:00.000Z,28.7
2018-06-17T09:16:00.000Z,29.1
2018-06-17T09:21:00.000Z,29.4
2018-06-17T09:26:00.000Z,29.9
2018-06-17T09:31:00.000Z,30.1
2018-06-17T09:36:00.000Z,30.4
2018-06-17T09:41:00.000Z,30.4
2018-06-17T09:46:00.000Z,30.5
2018-06-17T09:51:00.000Z,30.4
2018-06-17T09:56:00.000Z,30.5
2018-06-17T10:01:00.000Z,30.4
2018-06-17T10:06:00.000Z,30.5
2018-06-17T10:11:00.000Z,30.8
2018-06-17T10:16:00.000Z,31.0
2018-06-17T10:21:00.000Z,30.9
2018-06-17T10:26:00.000Z,31.0
2018-06-17T10:31:00.000Z,31.3
2018-06-17T10:36:00.000Z,31.5
2018-06-17T10:41:00.000Z,31.5
2018-06-17T10:46:00.000Z,31.2
2018-06-17T10:51:00.000Z,31.5
2018-06-17T10:56:00.000Z,31.3
2018-06-17T11:01:00.000Z,30.5
2018-06-17T11:06:00.000Z,30.3
2018-06-17T11:11:00.000Z,30.4
2018-06-17T11:16:00.000Z,29.8
2018-06-17T11:21:00.000Z,29.4
2018-06-17T11:26:00.000Z,29.5
2018-06-17T11:31:00.000Z,29.6
2018-06-17T11:36:00.000Z,29.7
2018-06-17T11:41:00.000Z,30.1
2018-06-17T11:46:00.000Z,30.4
2018-06-17T11:51:00.000Z,30.0
2018-06-17T11:56:00.000Z,30.1
2018-06-17T12:01:00.000Z,30.2
2018-06-17T12:06:00.000Z,30.1
2018-06-17T12:11:00.000Z,30.2
2018-06-17T12:16:00.000Z,29.9
2018-06-17T12:21:00.000Z,30.0
2018-06-17T12:26:00.000Z,30.3
2018-06-17T12:31:00.000Z,30.4
2018-06-17T12:36:00.000Z,30.5
2018-06-17T12:41:00.000Z,30.5
2018-06-17T12:46:00.000Z,30.6
2018-06-17T12:51:00.000Z,30.7
2018-06-17T12:56:00.000Z,30.9
2018-06-17T13:01:00.000Z,30.5
2018-06-17T13:06:00.000Z,30.0
2018-06-17T13:11:00.000Z,29.5
2018-06-17T13:16:00.000Z,29.0
2018-06-17T13:21:00.000Z,28.5
2018-06-17T13:26:00.000Z,28.1
2018-06-17T13:32:00.000Z,27.8
2018-06-17T13:37:00.000Z,27.5
2018-06-17T13:42:00.000Z,27.3
2018-06-17T13:47:00.000Z,27.1
2018-06-17T13:52:00.000Z,26.9
2018-06-17T13:57:00.000Z,26.8
2018-06-17T14:02:00.000Z,26.7
2018-06-17T14:07:00.000Z,26.5
2018-06-17T14:12:00.000Z,26.3
2018-06-17T14:17:00.000Z,26.2
2018-06-17T14:22:00.000Z,26.2
2018-06-17T14:27:00.000Z,26.2
2018-06-17T14:32:00.000Z,26.2
2018-06-17T14:37:00.000Z,26.2
2018-06-17T14:42:00.000Z,26.2
2018-06-17T14:47:00.000Z,26.3
2018-06-17T14:52:00.000Z,26.3
2018-06-17T14:57:00.000Z,26.3
2018-06-17T15:02:00.000Z,26.3
2018-06-17T15:07:00.000Z,26.2
2018-06-17T15:12:00.000Z,26.2
2018-06-17T15:17:00.000Z,26.2
2018-06-17T15:22:00.000Z,26.2
2018-06-17T15:27:00.000Z,26.1
2018-06-17T15:32:00.000Z,26.0
2018-06-17T15:37:00.000Z,26.0
2018-06-17T15:42:00.000Z,26.0
2018-06-17T15:47:00.000Z,25.9
2018-06-17T15:52:00.000Z,25.8
2018-06-17T15:57:00.000Z,25.8
2018-06-17T16:02:00.000Z,25.8
2018-06-17T16:07:00.000Z,25.8
2018-06-17T16:12:00.000Z,25.8
2018-06-17T16:17:00.000Z,25.8
2018-06-17T16:22:00.000Z,25.7
2018-06-17T16:27:00.000Z,25.7
2018-06-17T16:32:00.000Z,25.7
2018-06-17T16:37:00.000Z,25.6
2018-06-17T16:42:00.000Z,25.6
2018-06-17T16:47:00.000Z,25.5
2018-06-17T16:52:00.000Z,25.5
2018-06-17T16:57:00.000Z,25.4
2018-06-17T17:02:00.000Z,25.4
2018-06-17T17:07:00.000Z,25.3
2018-06-17T17:12:00.000Z,25.3
2018-06-17T17:17:00.000Z,25.3
2018-06-17T17:22:00.000Z,25.2
2018-06-17T17:27:00.000Z,25.2
2018-06-17T17:32:00.000Z,25.2
2018-06-17T17:37:00.000Z,25.1
2018-06-17T17:42:00.000Z,25.1
2018-06-17T17:47:00.000Z,25.1
2018-06-17T17:52:00.000Z,25.0
2018-06-17T17:57:00.000Z,25.0
2018-06-17T18:02:00.000Z,24.9
2018-06-17T18:07:00.000Z,24.9
2018-06-17T18:12:00.000Z,24.8
2018-06-17T18:17:00.000Z,24.8
2018-06-17T18:22:00.000Z,24.8
2018-06-17T18:27:00.000Z,24.8
2018-06-17T18:32:00.000Z,24.7
2018-06-17T18:37:00.000Z,24.6
2018-06-17T18:42:00.000Z,24.6
2018-06-17T18:47:00.000Z,24.5
2018-06-17T18:52:00.000Z,24.5
2018-06-17T18:57:00.000Z,24.4
2018-06-17T19:02:00.000Z,24.4
2018-06-17T19:07:00.000Z,24.3
2018-06-17T19:12:00.000Z,24.2
2018-06-17T19:17:00.000Z,24.2
2018-06-17T19:22:00.000Z,24.1
2018-06-17T19:27:00.000Z,24.1
2018-06-17T19:33:00.000Z,24.0
2018-06-17T19:38:00.000Z,24.0
2018-06-17T19:43:00.000Z,23.9
2018-06-17T19:48:00.000Z,23.9
2018-06-17T19:53:00.000Z,23.8
2018-06-17T19:58:00.000Z,23.8
2018-06-17T20:03:00.000Z,23.7
2018-06-17T20:08:00.000Z,23.7
2018-06-17T20:13:00.000Z,23.6
2018-06-17T20:18:00.000Z,23.6
2018-06-17T20:23:00.000Z,23.5
2018-06-17T20:28:00.000Z,23.5
2018-06-17T20:33:00.000Z,23.4
2018-06-17T20:38:00.000Z,23.4
2018-06-17T20:43:00.000Z,23.4
2018-06-17T20:48:00.000Z,23.3
2018-06-17T20:53:00.000Z,23.3
2018-06-17T20:58:00.000Z,23.2
2018-06-17T21:03:00.000Z,23.1
2018-06-17T21:08:00.000Z,23.1
2018-06-17T21:13:00.000Z,23.0
2018-06-17T21:18:00.000Z,22.9
2018-06-17T21:23:00.000Z,22.7
2018-06-17T21:28:00.000Z,22.6
2018-06-17T21:33:00.000Z,22.5
2018-06-17T21:38:00.000Z,22.3
2018-06-17T21:43:00.000Z,22.2
2018-06-17T21:48:00.000Z,22.0
2018-06-17T21:53:00.000Z,22.0
2018-06-17T21:58:00.000Z,21.9
2018-06-17T22:03:00.000Z,21.8
2018-06-17T22:08:00.000Z,21.7
2018-06-17T22:13:00.000Z,21.6
2018-06-17T22:18:00.000Z,21.5
2018-06-17T22:23:00.000Z,21.4
2018-06-17T22:28:00.000Z,21.4
2018-06-17T22:33:00.000Z,21.3
2018-06-17T22:38:00.000Z,21.2
2018-06-17T22:43:00.000Z,21.2
2018-06-17T22:48:00.000Z,21.2
2018-06-17T22:53:00.000Z,21.2
2018-06-17T22:58:00.000Z,21.2
2018-06-17T23:03:00.000Z,21.1
2018-06-17T23:08:00.000Z,21.1
2018-06-17T23:13:00.000Z,21.0
2018-06-17T23:18:00.000Z,21.0
2018-06-17T23:23:00.000Z,20.9
2018-06-17T23:28:00.000Z,20.9
2018-06-17T23:33:00.000Z,20.8
2018-06-17T23:38:00.000Z,20.8
2018-06-17T23:43:00.000Z,20.8
2018-06-17T23:48:00.000Z,20.8
2018-06-17T23:53:00.000Z,20.8
2018-06-17T23:58:00.000Z,20.8
